Archiv-/Tagesdaten

--Timestamp---	Temp	Chill	HIndex	Humid	Dewpt	 Wind 	HiWind	WindDir	Rain 	Barom	Solar	 ET  	 UV 
--------------	----	-----	------	-----	-----	------	------	-------	-----	-----	-----	-----	----
20110317 00:00	6.6	6.6	6.6	80	3.4	2	5	68	0.0	999.2	0	0.025	0.0
20110317 00:05	6.6	6.6	6.6	81	3.6	0	2	68	0.0	999.1	0	0.000	0.0
20110317 00:10	6.6	6.6	6.6	81	3.6	2	5	68	0.0	998.8	-100000	0.000	0.0
20110317 00:15	6.6	6.6	6.6	81	3.6	5	6	68	0.0	998.7	-100000	0.000	0.0
20110317 00:20	6.6	6.6	6.6	81	3.6	3	8	68	0.0	998.7	0	0.000	0.0
20110317 00:25	6.6	6.6	6.6	81	3.5	0	5	68	0.0	998.7	0	0.000	0.0
20110317 00:30	6.4	6.4	6.4	81	3.4	2	6	68	0.0	998.6	0	0.000	0.0
20110317 00:35	6.4	6.4	6.4	81	3.4	2	5	68	0.0	998.8	0	0.000	0.0
20110317 00:40	6.4	6.4	6.4	81	3.4	2	5	68	0.0	998.7	0	0.000	0.0
20110317 00:45	6.4	6.4	6.4	81	3.4	2	6	68	0.0	998.8	0	0.000	0.0
20110317 00:50	6.3	6.3	6.3	81	3.3	0	5	68	0.0	998.9	0	0.000	0.0
20110317 00:55	6.3	6.3	6.3	81	3.3	0	0	-100000	0.0	999.0	0	0.000	0.0
20110317 01:00	6.3	6.3	6.3	81	3.3	0	0	-100000	0.0	999.0	0	0.025	0.0
20110317 01:05	6.3	6.3	6.3	82	3.4	3	6	68	0.0	999.2	0	0.000	0.0
20110317 01:10	6.2	6.2	6.2	82	3.4	2	5	68	0.0	999.2	0	0.000	0.0
20110317 01:15	6.2	6.2	6.2	82	3.3	2	5	68	0.0	999.0	0	0.000	0.0
20110317 01:20	6.2	6.2	6.2	83	3.5	0	3	68	0.0	999.0	0	0.000	0.0
20110317 01:25	6.2	6.2	6.2	83	3.5	2	5	68	0.0	999.0	0	0.000	0.0
20110317 01:30	6.2	6.2	6.2	83	3.5	3	5	68	0.0	999.0	0	0.000	0.0
20110317 01:35	6.1	6.1	6.1	83	3.4	3	6	68	0.0	999.0	0	0.000	0.0
20110317 01:40	6.1	6.1	6.1	83	3.4	0	3	68	0.0	998.9	0	0.000	0.0
20110317 01:45	6.2	6.2	6.2	83	3.5	0	2	68	0.0	998.9	0	0.000	0.0
20110317 01:50	6.2	6.2	6.2	83	3.5	0	5	68	0.0	998.9	0	0.000	0.0
20110317 01:55	6.2	6.2	6.2	83	3.6	2	5	68	0.0	999.0	0	0.000	0.0
20110317 02:00	6.3	6.3	6.3	83	3.6	0	2	68	0.0	998.9	0	0.000	0.0
20110317 02:05	6.3	6.3	6.3	82	3.5	0	2	68	0.0	998.9	0	0.000	0.0
20110317 02:10	6.4	6.4	6.4	82	3.5	0	2	68	0.0	998.9	0	0.000	0.0
20110317 02:15	6.4	6.4	6.4	82	3.6	0	2	68	0.0	998.8	0	0.000	0.0
20110317 02:20	6.5	6.5	6.5	82	3.7	0	0	-100000	0.0	998.8	0	0.000	0.0
20110317 02:25	6.5	6.5	6.5	82	3.7	0	5	68	0.0	998.8	0	0.000	0.0
20110317 02:30	6.4	6.4	6.4	82	3.5	5	6	202	0.0	998.8	0	0.000	0.0
20110317 02:35	6.3	5.1	6.3	82	3.5	6	8	225	0.0	998.8	0	0.000	0.0
20110317 02:40	6.3	5.1	6.3	82	3.4	6	8	225	0.0	998.8	0	0.000	0.0
20110317 02:45	6.1	4.4	6.1	83	3.4	8	14	248	0.0	998.7	0	0.000	0.0
20110317 02:50	6.0	4.3	6.0	84	3.5	8	14	225	0.0	998.7	0	0.000	0.0
20110317 02:55	5.9	4.7	5.9	84	3.4	6	11	225	0.0	998.7	0	0.000	0.0
20110317 03:00	6.0	4.8	6.0	84	3.5	6	14	225	0.0	998.6	0	0.000	0.0
20110317 03:05	6.1	6.1	6.1	85	3.7	3	11	225	0.0	998.6	0	0.025	0.0
20110317 03:10	6.2	5.0	6.2	85	3.9	6	14	248	0.0	998.5	0	0.000	0.0
20110317 03:15	6.3	4.6	6.3	85	3.9	8	16	248	0.0	998.6	0	0.000	0.0
20110317 03:20	6.3	5.1	6.3	85	4.0	6	10	225	0.0	998.7	0	0.000	0.0
20110317 03:25	6.3	6.3	6.3	85	4.0	5	10	248	0.0	998.6	0	0.000	0.0
20110317 03:30	6.3	5.1	6.3	85	4.0	6	11	248	0.0	998.7	0	0.000	0.0
20110317 03:35	6.3	6.3	6.3	86	4.2	3	10	248	0.0	998.7	0	0.000	0.0
20110317 03:40	6.4	6.4	6.4	86	4.2	3	8	248	0.0	998.6	0	0.000	0.0
20110317 03:45	6.4	6.4	6.4	86	4.2	5	8	248	0.0	998.6	0	0.000	0.0
20110317 03:50	6.4	6.4	6.4	86	4.2	3	8	248	0.0	998.5	0	0.000	0.0
20110317 03:55	6.3	6.3	6.3	86	4.2	5	8	248	0.0	998.5	0	0.000	0.0
20110317 04:00	6.3	6.3	6.3	86	4.2	5	8	248	0.0	998.5	0	0.025	0.0
20110317 04:05	6.3	6.3	6.3	86	4.1	5	8	248	0.0	998.4	0	0.000	0.0
20110317 04:10	6.3	6.3	6.3	87	4.3	5	8	248	0.0	998.2	-100000	0.000	0.0
20110317 04:15	6.3	6.3	6.3	87	4.3	3	6	248	0.0	998.3	0	0.000	0.0
20110317 04:20	6.3	6.3	6.3	87	4.3	2	5	248	0.0	998.3	0	0.000	0.0
20110317 04:25	6.2	6.2	6.2	87	4.2	2	6	248	0.0	998.4	0	0.000	0.0
20110317 04:30	6.2	6.2	6.2	87	4.2	3	6	248	0.0	998.4	0	0.000	0.0
20110317 04:35	6.1	6.1	6.1	88	4.3	3	6	248	0.0	998.5	0	0.000	0.0
20110317 04:40	6.1	6.1	6.1	88	4.3	2	6	248	0.0	998.6	0	0.000	0.0
20110317 04:45	6.1	6.1	6.1	88	4.3	2	6	248	0.0	998.7	0	0.000	0.0
20110317 04:50	6.1	6.1	6.1	88	4.2	2	5	248	0.0	998.8	0	0.000	0.0
20110317 04:55	6.1	6.1	6.1	88	4.2	5	10	248	0.0	998.8	0	0.000	0.0
20110317 05:00	6.1	4.8	6.1	88	4.2	6	8	315	0.0	998.8	0	0.000	0.0
20110317 05:05	6.0	6.0	6.0	88	4.2	5	8	315	0.0	999.0	0	0.000	0.0
20110317 05:10	6.0	6.0	6.0	89	4.3	5	6	315	0.0	999.0	0	0.000	0.0
20110317 05:15	6.0	6.0	6.0	89	4.3	5	8	315	0.0	999.0	0	0.000	0.0
20110317 05:20	6.0	6.0	6.0	89	4.3	5	8	315	0.0	998.9	0	0.000	0.0
20110317 05:25	5.9	5.9	5.9	89	4.3	5	10	292	0.0	998.9	0	0.000	0.0
20110317 05:30	5.9	4.6	5.9	89	4.2	6	10	292	0.0	998.8	0	0.000	0.0
20110317 05:35	5.8	4.6	5.8	89	4.2	6	11	270	0.2	998.7	0	0.000	0.0
20110317 05:40	5.8	4.5	5.8	89	4.1	6	11	270	0.0	998.6	0	0.000	0.0
20110317 05:45	5.8	5.8	5.8	90	4.3	5	8	270	0.0	998.6	0	0.000	0.0
20110317 05:50	5.7	4.0	5.7	90	4.2	8	11	270	0.0	998.6	0	0.000	0.0
20110317 05:55	5.7	5.7	5.7	90	4.2	5	10	270	0.0	998.7	0	0.000	0.0
20110317 06:00	5.6	5.6	5.6	90	4.1	5	10	270	0.0	998.7	0	0.000	0.0
20110317 06:05	5.6	5.6	5.6	90	4.1	5	10	270	0.0	998.9	0	0.000	0.0
20110317 06:10	5.6	4.2	5.6	91	4.2	6	10	270	0.0	998.9	0	0.000	0.0
20110317 06:15	5.6	4.2	5.6	91	4.2	6	11	270	0.0	998.9	0	0.000	0.0
20110317 06:20	5.5	4.2	5.5	91	4.1	6	14	270	0.0	998.9	0	0.000	0.0
20110317 06:25	5.5	5.5	5.5	91	4.1	3	8	270	0.0	999.0	0	0.000	0.0
20110317 06:30	5.6	5.6	5.6	91	4.2	2	5	270	0.0	999.2	0	0.000	0.0
20110317 06:35	5.6	5.6	5.6	91	4.2	3	6	270	0.0	999.3	0	0.000	0.0
20110317 06:40	5.6	5.6	5.6	91	4.3	2	5	270	0.2	999.4	0	0.000	0.0
20110317 06:45	5.7	5.7	5.7	91	4.3	2	5	270	0.0	999.5	0	0.000	0.0
20110317 06:50	5.7	5.7	5.7	91	4.3	3	5	270	0.2	999.5	0	0.000	0.0
20110317 06:55	5.7	5.7	5.7	91	4.4	3	6	270	0.0	999.6	5	0.000	0.0
20110317 07:00	5.7	5.7	5.7	91	4.4	5	8	270	0.2	999.6	7	0.000	0.0
20110317 07:05	5.7	5.7	5.7	91	4.4	3	8	270	0.0	999.6	9	0.000	0.0
20110317 07:10	5.8	5.8	5.8	91	4.4	5	6	270	0.2	999.6	10	0.000	0.0
20110317 07:15	5.7	4.4	5.7	91	4.4	6	8	270	0.0	999.6	11	0.000	0.0
20110317 07:20	5.8	5.8	5.8	92	4.6	5	6	270	0.0	999.6	13	0.000	0.0
20110317 07:25	5.8	5.8	5.8	92	4.6	5	11	270	0.0	999.5	16	0.000	0.0
20110317 07:30	5.8	4.6	5.8	92	4.6	6	11	270	0.0	999.5	19	0.000	0.0
20110317 07:35	5.8	4.6	5.8	92	4.6	6	10	248	0.0	999.5	20	0.000	0.0
20110317 07:40	5.8	4.6	5.8	92	4.6	6	14	248	0.0	999.5	21	0.000	0.0
20110317 07:45	5.8	4.6	5.8	92	4.6	6	11	248	0.0	999.5	22	0.000	0.0
20110317 07:50	5.9	4.2	5.9	92	4.7	8	16	248	0.2	999.5	25	0.000	0.0
20110317 07:55	5.9	4.2	5.9	92	4.7	8	16	248	0.0	999.5	27	0.000	0.0
20110317 08:00	5.9	4.7	5.9	92	4.7	6	11	248	0.0	999.5	30	0.025	0.0
20110317 08:05	5.9	4.7	5.9	92	4.7	6	13	248	0.0	999.7	35	0.000	0.0
20110317 08:10	6.0	4.8	6.0	92	4.8	6	10	270	0.0	999.8	40	0.000	0.0
20110317 08:15	6.0	4.3	6.0	92	4.8	8	14	248	0.2	999.9	38	0.000	0.0
20110317 08:20	6.0	4.8	6.0	92	4.8	6	13	270	0.0	1000.0	34	0.000	0.0
20110317 08:25	6.0	6.0	6.0	92	4.8	5	11	248	0.0	1000.1	32	0.000	0.0
20110317 08:30	6.0	4.8	6.0	92	4.8	6	11	270	0.0	1000.0	27	0.000	0.0
20110317 08:35	6.0	4.8	6.0	92	4.8	6	14	248	0.0	1000.0	26	0.000	0.0
20110317 08:40	6.1	4.8	6.1	92	4.9	6	11	270	0.0	1000.0	28	0.000	0.0
20110317 08:45	6.1	4.4	6.1	93	5.0	8	18	292	0.0	1000.0	36	0.000	0.0
20110317 08:50	6.0	4.3	6.0	92	4.8	8	19	270	0.0	1000.0	47	0.000	0.0
20110317 08:55	6.1	4.0	6.1	93	5.0	10	16	270	0.2	1000.1	57	0.000	0.0
20110317 09:00	6.1	4.4	6.1	93	5.0	8	16	270	0.0	1000.1	57	0.025	0.0
20110317 09:05	6.1	4.4	6.1	93	5.0	8	16	292	0.0	1000.4	64	0.000	0.0
20110317 09:10	6.1	4.4	6.1	93	5.1	8	14	270	0.0	1000.4	65	0.000	0.0
20110317 09:15	6.1	4.1	6.1	93	5.1	10	18	270	0.0	1000.5	62	0.000	0.0
20110317 09:20	6.1	4.1	6.1	92	4.9	10	19	270	0.2	1000.5	59	0.000	0.0
20110317 09:25	6.2	4.1	6.2	92	5.0	10	14	270	0.0	1000.5	60	0.000	0.0
20110317 09:30	6.2	4.2	6.2	93	5.2	10	16	270	0.0	1000.6	60	0.000	0.0
20110317 09:35	6.2	3.9	6.2	92	5.0	11	18	292	0.0	1000.6	62	0.000	0.0
20110317 09:40	6.3	4.6	6.3	92	5.1	8	16	292	0.0	1000.6	70	0.000	0.0
20110317 09:45	6.3	4.0	6.3	92	5.1	11	18	292	0.0	1000.6	81	0.000	0.4
20110317 09:50	6.3	4.3	6.3	92	5.1	10	16	270	0.2	1000.7	78	0.000	0.3
20110317 09:55	6.3	4.7	6.3	93	5.3	8	14	270	0.0	1000.7	66	0.000	0.0
20110317 10:00	6.4	4.8	6.4	93	5.3	8	16	270	0.0	1000.6	72	0.025	0.3
20110317 10:05	6.3	4.3	6.3	92	5.1	10	18	270	0.0	1000.9	75	0.000	0.4
20110317 10:10	6.3	4.7	6.3	93	5.3	8	14	270	0.0	1000.9	67	0.000	0.0
20110317 10:15	6.4	4.8	6.4	93	5.4	8	16	270	0.0	1001.0	63	0.000	0.2
20110317 10:20	6.4	4.5	6.4	93	5.4	10	18	270	0.0	1001.0	63	0.000	0.2
20110317 10:25	6.4	4.8	6.4	92	5.2	8	14	270	0.0	1001.1	68	0.000	0.3
20110317 10:30	6.5	4.9	6.5	92	5.3	8	14	270	0.0	1001.0	77	0.000	0.5
20110317 10:35	6.6	5.0	6.6	92	5.3	8	18	270	0.0	1001.1	90	0.000	0.7
20110317 10:40	6.6	4.7	6.6	92	5.4	10	19	270	0.0	1001.0	111	0.000	0.8
20110317 10:45	6.8	4.9	6.8	93	5.7	10	24	270	0.0	1001.1	146	0.000	1.0
20110317 10:50	6.8	4.6	6.8	93	5.8	11	24	270	0.0	1001.0	155	0.000	1.1
20110317 10:55	6.9	4.2	6.9	92	5.7	14	23	270	0.0	1001.0	157	0.000	1.2
20110317 11:00	7.0	4.8	7.0	92	5.8	11	18	270	0.0	1001.0	143	0.051	1.0
20110317 11:05	7.2	5.3	7.2	92	6.0	10	23	248	0.0	1001.2	140	0.000	0.9
20110317 11:10	7.2	4.5	7.2	92	6.0	14	26	248	0.0	1001.2	145	0.000	1.0
20110317 11:15	7.2	4.3	7.2	91	5.8	16	24	270	0.0	1001.2	159	0.000	1.2
20110317 11:20	7.2	4.8	7.2	91	5.9	13	24	270	0.0	1001.3	137	0.000	1.0
20110317 11:25	7.3	4.7	7.3	91	6.0	14	24	270	0.0	1001.2	161	0.000	1.2
20110317 11:30	7.4	5.1	7.4	91	6.1	13	24	270	0.0	1001.3	133	0.000	1.1
20110317 11:35	7.5	5.2	7.5	90	6.0	13	21	270	0.0	1001.3	126	0.000	1.0
20110317 11:40	7.5	4.9	7.5	90	6.0	14	26	270	0.0	1001.3	112	0.000	0.9
20110317 11:45	7.6	5.5	7.6	90	6.0	11	21	270	0.0	1001.3	88	0.000	0.7
20110317 11:50	7.5	4.7	7.5	90	6.0	16	23	270	0.0	1001.5	100	0.000	0.8
20110317 11:55	7.4	5.1	7.4	90	5.9	13	23	270	0.0	1001.5	102	0.000	0.8
20110317 12:00	7.5	5.7	7.5	90	6.0	10	18	270	0.0	1001.4	87	0.076	0.7
20110317 12:05	7.6	5.2	7.6	90	6.0	13	21	270	0.0	1001.6	114	0.000	0.9
20110317 12:10	7.6	5.2	7.6	90	6.0	13	23	270	0.0	1001.7	-100000	0.000	0.6
20110317 12:15	7.5	5.2	7.5	90	6.0	13	24	270	0.0	1001.7	63	0.000	0.5
20110317 12:20	7.4	5.1	7.4	90	5.9	13	23	270	0.0	1001.8	71	0.000	0.6
20110317 12:25	7.4	5.1	7.4	90	5.9	13	21	270	0.0	1001.8	85	0.000	0.7
20110317 12:30	7.4	5.0	7.4	90	5.9	13	24	270	0.0	1001.9	79	0.000	0.6
20110317 12:35	7.4	5.7	7.4	90	5.9	10	18	270	0.0	1001.9	69	0.000	0.5
20110317 12:40	7.4	5.6	7.4	90	5.9	10	16	270	0.0	1002.0	62	0.000	0.3
20110317 12:45	7.4	5.0	7.4	91	6.0	13	23	270	0.0	1002.0	78	0.000	0.6
20110317 12:50	7.4	5.4	7.4	91	6.1	11	21	270	0.2	1002.0	94	0.000	0.8
20110317 12:55	7.4	5.0	7.4	91	6.0	13	19	292	0.0	1002.1	73	0.000	0.6
20110317 13:00	7.4	4.8	7.4	91	6.0	14	23	292	0.0	1002.0	72	0.051	0.6
20110317 13:05	7.3	5.0	7.3	91	6.0	13	24	270	0.0	1002.0	89	0.000	0.7
20110317 13:10	7.4	4.6	7.4	91	6.0	16	26	270	0.0	1002.1	92	0.000	0.8
20110317 13:15	7.4	4.9	7.4	91	6.1	14	23	292	0.0	1002.2	61	0.000	0.4
20110317 13:20	7.4	5.1	7.4	91	6.1	13	21	270	0.0	1002.2	49	0.000	0.0
20110317 13:25	7.4	5.0	7.4	91	6.0	13	21	292	0.0	1002.2	49	0.000	0.0
20110317 13:30	7.4	5.6	7.4	91	6.0	10	21	292	0.0	1002.2	49	0.000	0.0
20110317 13:35	7.3	4.7	7.3	91	6.0	14	21	270	0.0	1002.3	68	0.000	0.5
20110317 13:40	7.3	5.0	7.3	91	6.0	13	24	270	0.0	1002.3	56	0.000	0.4
20110317 13:45	7.3	4.6	7.3	91	5.9	14	23	292	0.2	1002.4	44	0.000	0.0
20110317 13:50	7.3	5.2	7.3	91	5.9	11	21	292	0.0	1002.5	34	0.000	0.0
20110317 13:55	7.2	4.6	7.2	91	5.9	14	24	292	0.0	1002.5	41	0.000	0.0
20110317 14:00	7.2	5.1	7.2	91	5.9	11	21	270	0.0	1002.5	53	0.025	0.1
20110317 14:05	7.2	5.4	7.2	92	6.0	10	21	270	0.0	1002.5	58	0.000	0.3
20110317 14:10	7.2	5.4	7.2	92	6.0	10	18	270	0.2	1002.5	45	0.000	0.0
20110317 14:15	7.2	5.4	7.2	92	6.0	10	19	270	0.0	1002.5	56	0.000	0.1
20110317 14:20	7.2	4.6	7.2	92	6.0	14	19	270	0.2	1002.5	78	0.000	0.6
20110317 14:25	7.2	4.6	7.2	92	6.0	14	23	292	0.0	1002.6	67	0.000	0.3
20110317 14:30	7.2	5.4	7.2	92	6.0	10	19	270	0.2	1002.6	45	0.000	0.0
20110317 14:35	7.2	5.1	7.2	92	6.0	11	19	270	0.0	1002.7	44	0.000	0.0
20110317 14:40	7.2	5.1	7.2	92	6.0	11	23	270	0.2	1002.7	34	0.000	0.0
20110317 14:45	7.2	4.6	7.2	92	6.0	14	21	270	0.0	1002.8	34	0.000	0.0
20110317 14:50	7.2	5.1	7.2	92	6.0	11	21	292	0.2	1002.9	27	0.000	0.0
20110317 14:55	7.2	5.4	7.2	92	6.0	10	18	270	0.2	1003.0	24	0.000	0.0
20110317 15:00	7.2	5.1	7.2	92	6.0	11	18	270	0.2	1003.1	20	0.025	0.0
20110317 15:05	7.2	4.5	7.2	92	6.0	14	23	270	0.2	1003.1	24	0.000	0.0
20110317 15:10	7.1	4.0	7.1	92	5.9	18	26	270	0.2	1003.1	23	0.000	0.0
20110317 15:15	7.1	4.7	7.1	92	5.9	13	21	270	0.2	1003.2	19	0.000	0.0
20110317 15:20	7.2	4.5	7.2	93	6.1	14	23	270	0.2	1003.3	23	0.000	0.0
20110317 15:25	7.1	4.2	7.1	92	5.9	16	24	270	0.0	1003.4	25	0.000	0.0
20110317 15:30	7.1	4.1	7.1	92	5.8	16	27	292	0.2	1003.5	29	0.000	0.0
20110317 15:35	7.1	3.9	7.1	92	5.8	18	29	292	0.2	1003.5	29	0.000	0.0
20110317 15:40	7.1	3.9	7.1	92	5.8	18	31	292	0.2	1003.6	31	0.000	0.0
20110317 15:45	7.0	3.9	7.0	92	5.8	18	31	292	0.2	1003.7	34	0.000	0.0
20110317 15:50	7.1	4.6	7.1	92	5.8	13	24	270	0.2	1003.7	34	0.000	0.0
20110317 15:55	7.1	4.4	7.1	93	6.0	14	23	270	0.0	1003.7	33	0.000	0.0
20110317 16:00	7.1	4.1	7.1	93	6.0	16	24	270	0.2	1003.8	31	0.025	0.0
20110317 16:05	7.0	4.3	7.0	92	5.8	14	24	270	0.0	1003.9	27	0.000	0.0
20110317 16:10	7.0	4.3	7.0	93	5.9	14	27	270	0.2	1004.0	24	0.000	0.0
20110317 16:15	7.0	4.5	7.0	93	5.9	13	21	270	0.0	1004.1	19	0.000	0.0
20110317 16:20	7.0	4.5	7.0	93	5.9	13	23	270	0.2	1004.1	14	0.000	0.0
20110317 16:25	7.0	4.1	7.0	93	5.9	16	26	270	0.2	1004.2	11	0.000	0.0
20110317 16:30	6.9	4.2	6.9	93	5.9	14	26	270	0.0	1004.2	11	0.000	0.0
20110317 16:35	6.9	3.8	6.9	93	5.9	18	26	270	0.2	1004.3	11	0.000	0.0
20110317 16:40	6.9	3.8	6.9	93	5.9	18	26	270	0.2	1004.4	10	0.000	0.0
20110317 16:45	6.9	3.8	6.9	93	5.9	18	29	270	0.0	1004.5	10	0.000	0.0
20110317 16:50	6.9	4.0	6.9	93	5.9	16	26	270	0.2	1004.5	9	0.000	0.0
20110317 16:55	6.9	3.8	6.9	93	5.9	18	27	292	0.2	1004.7	8	0.000	0.0
20110317 17:00	6.9	4.0	6.9	93	5.9	16	29	270	0.2	1004.7	9	0.025	0.0
20110317 17:05	6.9	3.9	6.9	93	5.8	16	26	270	0.2	1004.9	10	0.000	0.0
20110317 17:10	6.9	4.7	6.9	93	5.8	11	24	270	0.2	1004.9	9	0.000	0.0
20110317 17:15	6.9	4.2	6.9	93	5.8	14	26	270	0.2	1005.0	8	0.000	0.0
20110317 17:20	6.8	4.1	6.8	93	5.8	14	27	270	0.2	1005.1	3	0.000	0.0
20110317 17:25	6.8	3.9	6.8	93	5.8	16	26	270	0.0	1005.2	5	0.000	0.0
20110317 17:30	6.8	3.8	6.8	93	5.7	16	29	270	0.2	1005.3	4	0.000	0.0
20110317 17:35	6.8	4.0	6.8	93	5.7	14	24	270	0.0	1005.3	5	0.000	0.0
20110317 17:40	6.8	3.8	6.8	93	5.7	16	24	270	0.0	1005.4	5	0.000	0.0
20110317 17:45	6.7	4.0	6.7	93	5.7	14	24	270	0.2	1005.5	2	0.000	0.0
20110317 17:50	6.7	3.9	6.7	93	5.6	14	26	270	0.2	1005.7	0	0.000	0.0
20110317 17:55	6.7	4.1	6.7	93	5.6	13	23	270	0.2	1005.7	0	0.000	0.0
20110317 18:00	6.6	3.6	6.6	93	5.6	16	24	270	0.0	1005.8	0	0.000	0.0
20110317 18:05	6.6	4.1	6.6	93	5.6	13	21	270	0.2	1005.9	0	0.000	0.0
20110317 18:10	6.6	4.1	6.6	93	5.6	13	24	270	0.2	1005.9	0	0.000	0.0
20110317 18:15	6.6	3.5	6.6	93	5.5	16	27	270	0.0	1006.0	0	0.000	0.0
20110317 18:20	6.6	4.0	6.6	93	5.5	13	24	270	0.2	1006.2	0	0.000	0.0
20110317 18:25	6.6	3.5	6.6	93	5.5	16	24	270	0.2	1006.3	0	0.000	0.0
20110317 18:30	6.5	3.5	6.5	93	5.5	16	24	270	0.2	1006.3	0	0.000	0.0
20110317 18:35	6.4	3.6	6.4	93	5.4	14	24	270	0.0	1006.4	0	0.000	0.0
20110317 18:40	6.4	3.6	6.4	93	5.3	14	24	270	0.2	1006.5	0	0.000	0.0
20110317 18:45	6.4	3.6	6.4	93	5.3	14	24	270	0.0	1006.5	0	0.000	0.0
20110317 18:50	6.3	3.0	6.3	93	5.3	18	32	270	0.2	1006.8	0	0.000	0.0
20110317 18:55	6.3	3.0	6.3	93	5.2	18	26	292	0.2	1006.9	0	0.000	0.0
20110317 19:00	6.3	3.0	6.3	93	5.2	18	23	270	0.2	1007.0	0	0.000	0.0
20110317 19:05	6.3	3.2	6.3	93	5.2	16	29	270	0.2	1006.9	0	0.000	0.0
20110317 19:10	6.3	3.0	6.3	93	5.2	18	27	270	0.2	1007.0	0	0.000	0.0
20110317 19:15	6.2	2.9	6.2	93	5.2	18	26	292	0.2	1007.1	0	0.000	0.0
20110317 19:20	6.2	2.6	6.2	93	5.1	19	27	292	0.2	1007.3	0	0.000	0.0
20110317 19:25	6.1	3.0	6.1	93	5.1	16	26	270	0.2	1007.3	0	0.000	0.0
20110317 19:30	6.1	3.0	6.1	93	5.1	16	24	292	0.2	1007.4	0	0.000	0.0
20110317 19:35	6.1	3.5	6.1	93	5.1	13	21	292	0.0	1007.5	0	0.000	0.0
20110317 19:40	6.1	3.4	6.1	93	5.0	13	24	270	0.2	1007.6	0	0.000	0.0
20110317 19:45	6.0	3.1	6.0	93	5.0	14	23	270	0.2	1007.6	0	0.000	0.0
20110317 19:50	5.9	2.8	5.9	93	4.9	16	32	270	0.2	1007.7	0	0.000	0.0
20110317 19:55	5.8	2.4	5.8	93	4.8	18	32	270	0.2	1007.7	0	0.000	0.0
20110317 20:00	5.8	2.6	5.8	93	4.7	16	21	270	0.0	1007.8	0	0.000	0.0
20110317 20:05	5.8	2.3	5.8	93	4.7	18	26	270	0.2	1008.1	0	0.000	0.0
20110317 20:10	5.7	2.3	5.7	93	4.7	18	26	270	0.0	1008.2	-100000	0.000	0.0
20110317 20:15	5.7	2.7	5.7	93	4.7	14	21	270	0.2	1008.2	-100000	0.000	0.0
20110317 20:20	5.7	2.7	5.7	93	4.6	14	26	270	0.2	1008.4	0	0.000	0.0
20110317 20:25	5.7	2.7	5.7	93	4.6	14	24	270	0.0	1008.5	0	0.000	0.0
20110317 20:30	5.7	2.7	5.7	93	4.6	14	26	270	0.2	1008.6	0	0.000	0.0
20110317 20:35	5.7	2.4	5.7	93	4.6	16	27	270	0.2	1008.6	0	0.000	0.0
20110317 20:40	5.6	2.6	5.6	93	4.6	14	23	270	0.2	1008.7	0	0.000	0.0
20110317 20:45	5.7	2.7	5.7	93	4.6	14	29	270	0.2	1008.8	0	0.000	0.0
20110317 20:50	5.6	2.6	5.6	93	4.6	14	24	270	0.2	1008.9	0	0.000	0.0
20110317 20:55	5.6	2.4	5.6	93	4.6	16	27	270	0.0	1008.9	0	0.000	0.0
20110317 21:00	5.6	2.8	5.6	93	4.5	13	19	270	0.2	1009.0	0	0.000	0.0
20110317 21:05	5.6	2.5	5.6	93	4.5	14	29	270	0.0	1009.0	0	0.000	0.0
20110317 21:10	5.6	2.5	5.6	93	4.5	14	24	270	0.2	1009.0	0	0.000	0.0
20110317 21:15	5.6	2.3	5.6	93	4.5	16	29	292	0.0	1009.2	0	0.000	0.0
20110317 21:20	5.6	2.5	5.6	93	4.5	14	24	270	0.2	1009.3	0	0.000	0.0
20110317 21:25	5.5	2.2	5.5	93	4.5	16	27	292	0.0	1009.5	0	0.000	0.0
20110317 21:30	5.5	2.0	5.5	93	4.5	18	29	270	0.0	1009.5	0	0.000	0.0
20110317 21:35	5.5	2.0	5.5	93	4.5	18	27	270	0.2	1009.5	0	0.000	0.0
20110317 21:40	5.6	2.8	5.6	92	4.4	13	24	270	0.0	1009.6	0	0.000	0.0
20110317 21:45	5.5	2.7	5.5	92	4.3	13	21	292	0.0	1009.6	0	0.000	0.0
20110317 21:50	5.5	2.7	5.5	92	4.3	13	21	270	0.2	1009.7	0	0.000	0.0
20110317 21:55	5.5	2.7	5.5	93	4.5	13	26	270	0.0	1009.8	0	0.000	0.0
20110317 22:00	5.5	2.2	5.5	92	4.3	16	27	270	0.0	1009.8	0	0.000	0.0
20110317 22:05	5.4	2.2	5.4	92	4.2	16	31	270	0.0	1009.8	0	0.000	0.0
20110317 22:10	5.3	1.8	5.3	92	4.1	18	29	270	0.2	1009.9	0	0.000	0.0
20110317 22:15	5.3	1.8	5.3	92	4.1	18	29	270	0.0	1009.9	0	0.000	0.0
20110317 22:20	5.3	1.8	5.3	92	4.1	18	29	292	0.2	1010.0	0	0.000	0.0
20110317 22:25	5.4	2.6	5.4	92	4.2	13	19	270	0.0	1010.1	0	0.000	0.0
20110317 22:30	5.4	2.6	5.4	92	4.2	13	23	270	0.2	1010.1	0	0.000	0.0
20110317 22:35	5.4	2.7	5.4	92	4.2	13	24	270	0.0	1010.1	0	0.000	0.0
20110317 22:40	5.4	1.9	5.4	92	4.2	18	31	270	0.2	1010.1	0	0.000	0.0
20110317 22:45	5.4	1.7	5.4	92	4.2	19	32	270	0.2	1010.2	0	0.000	0.0
20110317 22:50	5.4	2.3	5.4	92	4.2	14	23	270	0.2	1010.2	0	0.000	0.0
20110317 22:55	5.4	2.4	5.4	92	4.2	14	24	270	0.2	1010.3	0	0.000	0.0
20110317 23:00	5.4	2.2	5.4	92	4.2	16	32	248	0.0	1010.3	0	0.000	0.0
20110317 23:05	5.3	1.2	5.3	92	4.1	23	42	270	0.2	1010.2	0	0.000	0.0
20110317 23:10	5.2	1.1	5.2	91	3.9	23	42	270	0.0	1010.4	0	0.000	0.0
20110317 23:15	5.2	0.7	5.2	91	3.8	26	45	292	0.2	1010.5	0	0.000	0.0
20110317 23:20	5.2	0.7	5.2	91	3.8	26	45	292	0.0	1010.6	0	0.000	0.0
20110317 23:25	5.1	0.9	5.1	91	3.8	23	37	270	0.2	1010.7	0	0.000	0.0
20110317 23:30	5.1	1.1	5.1	91	3.8	21	37	292	0.2	1010.7	0	0.000	0.0
20110317 23:35	5.1	1.3	5.1	91	3.8	19	31	270	0.0	1010.8	0	0.000	0.0
20110317 23:40	5.1	0.7	5.1	90	3.6	24	37	270	0.2	1010.9	0	0.000	0.0
20110317 23:45	5.1	0.7	5.1	90	3.6	24	37	270	0.2	1011.0	0	0.000	0.0
20110317 23:50	5.0	1.0	5.0	90	3.5	21	37	270	0.2	1011.0	0	0.000	0.0
20110317 23:55	4.9	0.5	4.9	90	3.4	24	34	270	0.2	1011.1	0	0.000	0.0



Please note the license to use and transfer of this data:
http://creativecommons.org/licenses/by-nc-sa/3.0/deed.en

Bitte beachten sie die Lizenz zur Verwertung und Weitergabe der Daten:
http://creativecommons.org/licenses/by-nc-sa/3.0/deed.de

zurück zur Übersicht der Archivdaten (Monats und Tagesdaten)

Cookies helfen bei der Bereitstellung von Inhalten. Durch die Nutzung dieser Seiten erklärst du dich damit einverstanden, dass Cookies auf deinem Rechner gespeichert werden. Weitere Information